sensor_id;sensor_type;location;lat;lon;timestamp;P1;P2;P0
77320;PMS7003;66382;52.252;8.780;2023-05-15T00:01:38;27.75;27.75;21.50
77320;PMS7003;66382;52.252;8.780;2023-05-15T00:04:04;22.75;22.75;18.50
77320;PMS7003;66382;52.252;8.780;2023-05-15T00:06:31;25.25;25.25;20.00
77320;PMS7003;66382;52.252;8.780;2023-05-15T00:08:57;25.00;25.00;19.25
77320;PMS7003;66382;52.252;8.780;2023-05-15T00:11:23;24.75;24.75;20.50
77320;PMS7003;66382;52.252;8.780;2023-05-15T00:13:48;29.75;29.75;22.75
77320;PMS7003;66382;52.252;8.780;2023-05-15T00:16:14;29.00;29.00;21.25
77320;PMS7003;66382;52.252;8.780;2023-05-15T00:18:40;27.25;27.25;21.00
77320;PMS7003;66382;52.252;8.780;2023-05-15T00:21:05;24.50;24.50;19.50
77320;PMS7003;66382;52.252;8.780;2023-05-15T00:23:33;29.50;29.50;21.50
77320;PMS7003;66382;52.252;8.780;2023-05-15T00:25:58;28.75;28.75;22.25
77320;PMS7003;66382;52.252;8.780;2023-05-15T00:28:24;24.25;24.25;19.50
77320;PMS7003;66382;52.252;8.780;2023-05-15T00:30:50;28.25;27.50;19.50
77320;PMS7003;66382;52.252;8.780;2023-05-15T00:33:15;26.00;26.00;21.00
77320;PMS7003;66382;52.252;8.780;2023-05-15T00:35:41;30.75;30.00;21.00
77320;PMS7003;66382;52.252;8.780;2023-05-15T00:38:07;28.50;26.75;19.50
77320;PMS7003;66382;52.252;8.780;2023-05-15T00:40:34;28.00;28.00;20.75
77320;PMS7003;66382;52.252;8.780;2023-05-15T00:43:01;39.25;35.00;27.50
77320;PMS7003;66382;52.252;8.780;2023-05-15T00:45:29;28.00;28.00;19.50
77320;PMS7003;66382;52.252;8.780;2023-05-15T00:47:55;27.25;27.25;20.25
77320;PMS7003;66382;52.252;8.780;2023-05-15T00:50:22;26.00;26.00;19.50
77320;PMS7003;66382;52.252;8.780;2023-05-15T00:52:48;29.75;29.25;21.50
77320;PMS7003;66382;52.252;8.780;2023-05-15T00:55:14;27.25;27.25;19.50
77320;PMS7003;66382;52.252;8.780;2023-05-15T00:57:42;29.25;29.00;21.50
77320;PMS7003;66382;52.252;8.780;2023-05-15T01:00:08;25.00;25.00;19.00
77320;PMS7003;66382;52.252;8.780;2023-05-15T01:02:34;28.00;28.00;21.25
77320;PMS7003;66382;52.252;8.780;2023-05-15T01:05:00;25.00;25.00;20.50
77320;PMS7003;66382;52.252;8.780;2023-05-15T01:07:26;25.00;25.00;19.50
77320;PMS7003;66382;52.252;8.780;2023-05-15T01:09:55;26.50;26.50;19.25
77320;PMS7003;66382;52.252;8.780;2023-05-15T01:12:22;30.00;29.00;20.25
77320;PMS7003;66382;52.252;8.780;2023-05-15T01:14:51;29.00;29.00;21.00
77320;PMS7003;66382;52.252;8.780;2023-05-15T01:17:18;23.75;23.75;19.25
77320;PMS7003;66382;52.252;8.780;2023-05-15T01:19:43;28.00;28.00;21.00
77320;PMS7003;66382;52.252;8.780;2023-05-15T01:22:33;25.00;25.00;20.00
77320;PMS7003;66382;52.252;8.780;2023-05-15T01:28:12;31.50;30.25;21.25
77320;PMS7003;66382;52.252;8.780;2023-05-15T01:30:42;27.50;27.50;21.25
77320;PMS7003;66382;52.252;8.780;2023-05-15T01:33:11;32.00;30.25;21.25
77320;PMS7003;66382;52.252;8.780;2023-05-15T01:35:44;25.75;25.75;20.50
77320;PMS7003;66382;52.252;8.780;2023-05-15T01:38:14;34.75;31.75;22.50
77320;PMS7003;66382;52.252;8.780;2023-05-15T01:40:43;30.25;30.00;22.00
77320;PMS7003;66382;52.252;8.780;2023-05-15T01:43:14;28.50;28.50;20.75
77320;PMS7003;66382;52.252;8.780;2023-05-15T01:45:42;30.75;30.00;21.50
77320;PMS7003;66382;52.252;8.780;2023-05-15T01:48:09;29.25;29.25;20.75
77320;PMS7003;66382;52.252;8.780;2023-05-15T01:50:38;29.50;29.25;20.50
77320;PMS7003;66382;52.252;8.780;2023-05-15T01:53:06;31.75;30.75;22.75
77320;PMS7003;66382;52.252;8.780;2023-05-15T01:55:33;32.00;31.00;21.75
77320;PMS7003;66382;52.252;8.780;2023-05-15T01:57:59;27.50;27.50;20.00
77320;PMS7003;66382;52.252;8.780;2023-05-15T02:00:28;28.75;28.75;21.00
77320;PMS7003;66382;52.252;8.780;2023-05-15T02:02:55;29.25;29.25;21.25
77320;PMS7003;66382;52.252;8.780;2023-05-15T02:05:22;25.25;25.25;20.00
77320;PMS7003;66382;52.252;8.780;2023-05-15T02:07:48;27.50;27.50;20.75
77320;PMS7003;66382;52.252;8.780;2023-05-15T02:10:14;29.50;29.25;22.00
77320;PMS7003;66382;52.252;8.780;2023-05-15T02:12:42;26.00;26.00;19.50
77320;PMS7003;66382;52.252;8.780;2023-05-15T02:15:09;28.25;28.25;21.50
77320;PMS7003;66382;52.252;8.780;2023-05-15T02:17:37;25.75;25.75;20.00
77320;PMS7003;66382;52.252;8.780;2023-05-15T02:20:03;26.00;26.00;20.00
77320;PMS7003;66382;52.252;8.780;2023-05-15T02:22:30;27.75;27.75;20.25
77320;PMS7003;66382;52.252;8.780;2023-05-15T02:24:55;33.00;31.75;22.00
77320;PMS7003;66382;52.252;8.780;2023-05-15T02:27:23;27.25;27.25;20.00
77320;PMS7003;66382;52.252;8.780;2023-05-15T02:29:54;29.00;29.00;22.00
77320;PMS7003;66382;52.252;8.780;2023-05-15T02:32:32;27.75;27.75;20.75
77320;PMS7003;66382;52.252;8.780;2023-05-15T02:35:09;25.50;25.50;20.25
77320;PMS7003;66382;52.252;8.780;2023-05-15T02:37:43;29.25;28.25;21.00
77320;PMS7003;66382;52.252;8.780;2023-05-15T02:40:12;26.75;26.75;20.00
77320;PMS7003;66382;52.252;8.780;2023-05-15T02:42:39;27.00;26.75;21.50
77320;PMS7003;66382;52.252;8.780;2023-05-15T02:45:07;25.25;25.25;20.00
77320;PMS7003;66382;52.252;8.780;2023-05-15T02:47:34;24.25;24.25;20.00
77320;PMS7003;66382;52.252;8.780;2023-05-15T02:50:01;28.75;28.75;20.00
77320;PMS7003;66382;52.252;8.780;2023-05-15T02:52:28;32.75;30.50;21.25
77320;PMS7003;66382;52.252;8.780;2023-05-15T02:54:54;29.50;29.50;22.00
77320;PMS7003;66382;52.252;8.780;2023-05-15T02:57:20;29.00;29.00;22.00
77320;PMS7003;66382;52.252;8.780;2023-05-15T02:59:45;30.50;30.00;22.25
77320;PMS7003;66382;52.252;8.780;2023-05-15T03:02:11;34.25;32.25;22.00
77320;PMS7003;66382;52.252;8.780;2023-05-15T03:04:37;33.75;32.00;22.75
77320;PMS7003;66382;52.252;8.780;2023-05-15T03:07:03;30.25;29.75;21.25
77320;PMS7003;66382;52.252;8.780;2023-05-15T03:09:30;34.00;31.75;22.00
77320;PMS7003;66382;52.252;8.780;2023-05-15T03:11:55;34.00;32.25;22.75
77320;PMS7003;66382;52.252;8.780;2023-05-15T03:14:21;34.25;32.25;23.75
77320;PMS7003;66382;52.252;8.780;2023-05-15T03:16:47;27.25;27.25;20.75
77320;PMS7003;66382;52.252;8.780;2023-05-15T03:19:13;27.50;27.50;20.50
77320;PMS7003;66382;52.252;8.780;2023-05-15T03:21:38;28.75;28.75;21.75
77320;PMS7003;66382;52.252;8.780;2023-05-15T03:24:04;28.75;28.75;21.00
77320;PMS7003;66382;52.252;8.780;2023-05-15T03:26:32;26.50;26.50;20.00
77320;PMS7003;66382;52.252;8.780;2023-05-15T03:28:59;28.00;27.50;20.00
77320;PMS7003;66382;52.252;8.780;2023-05-15T03:31:25;28.50;28.25;21.50
77320;PMS7003;66382;52.252;8.780;2023-05-15T03:33:51;32.25;31.25;22.75
77320;PMS7003;66382;52.252;8.780;2023-05-15T03:36:17;28.00;28.00;21.00
77320;PMS7003;66382;52.252;8.780;2023-05-15T03:38:42;29.75;29.75;21.50
77320;PMS7003;66382;52.252;8.780;2023-05-15T03:41:08;26.75;26.75;20.50
77320;PMS7003;66382;52.252;8.780;2023-05-15T03:43:35;27.25;27.25;21.00
77320;PMS7003;66382;52.252;8.780;2023-05-15T03:46:01;30.75;30.25;20.00
77320;PMS7003;66382;52.252;8.780;2023-05-15T03:48:27;31.75;30.75;22.00
77320;PMS7003;66382;52.252;8.780;2023-05-15T03:50:52;31.00;30.25;21.00
77320;PMS7003;66382;52.252;8.780;2023-05-15T03:53:18;31.50;30.50;21.75
77320;PMS7003;66382;52.252;8.780;2023-05-15T03:55:44;32.50;31.50;22.75
77320;PMS7003;66382;52.252;8.780;2023-05-15T03:58:10;34.75;33.00;23.50
77320;PMS7003;66382;52.252;8.780;2023-05-15T04:00:37;31.00;30.00;23.00
77320;PMS7003;66382;52.252;8.780;2023-05-15T04:03:02;29.50;29.50;21.00
77320;PMS7003;66382;52.252;8.780;2023-05-15T04:05:28;30.00;30.00;23.00
77320;PMS7003;66382;52.252;8.780;2023-05-15T04:07:54;32.00;31.00;22.75
77320;PMS7003;66382;52.252;8.780;2023-05-15T04:10:20;28.75;28.75;21.00
77320;PMS7003;66382;52.252;8.780;2023-05-15T04:12:45;36.50;33.75;24.00
77320;PMS7003;66382;52.252;8.780;2023-05-15T04:15:15;37.25;34.00;22.50
77320;PMS7003;66382;52.252;8.780;2023-05-15T04:17:43;32.75;31.25;22.00
77320;PMS7003;66382;52.252;8.780;2023-05-15T04:20:10;31.50;30.50;22.00
77320;PMS7003;66382;52.252;8.780;2023-05-15T04:22:37;31.50;30.25;21.25
77320;PMS7003;66382;52.252;8.780;2023-05-15T04:25:03;30.25;30.00;21.50
77320;PMS7003;66382;52.252;8.780;2023-05-15T04:27:29;35.50;33.25;24.00
77320;PMS7003;66382;52.252;8.780;2023-05-15T04:29:54;34.50;32.50;22.50
77320;PMS7003;66382;52.252;8.780;2023-05-15T04:32:20;37.00;34.00;24.00
77320;PMS7003;66382;52.252;8.780;2023-05-15T04:34:47;36.00;33.00;23.00
77320;PMS7003;66382;52.252;8.780;2023-05-15T04:37:13;42.00;36.25;25.75
77320;PMS7003;66382;52.252;8.780;2023-05-15T04:39:39;37.75;34.75;24.00
77320;PMS7003;66382;52.252;8.780;2023-05-15T04:42:05;35.25;33.00;23.00
77320;PMS7003;66382;52.252;8.780;2023-05-15T04:44:31;38.50;35.00;25.25
77320;PMS7003;66382;52.252;8.780;2023-05-15T04:46:56;38.00;34.25;25.00
77320;PMS7003;66382;52.252;8.780;2023-05-15T04:49:22;39.25;35.25;24.50
77320;PMS7003;66382;52.252;8.780;2023-05-15T04:51:49;39.50;35.25;23.50
77320;PMS7003;66382;52.252;8.780;2023-05-15T04:54:15;33.25;31.50;22.00
77320;PMS7003;66382;52.252;8.780;2023-05-15T04:56:41;36.75;33.75;23.25
77320;PMS7003;66382;52.252;8.780;2023-05-15T04:59:06;38.00;34.25;23.25
77320;PMS7003;66382;52.252;8.780;2023-05-15T05:01:32;37.75;34.50;23.50
77320;PMS7003;66382;52.252;8.780;2023-05-15T05:03:58;35.25;32.50;23.75
77320;PMS7003;66382;52.252;8.780;2023-05-15T05:06:23;36.75;33.75;24.00
77320;PMS7003;66382;52.252;8.780;2023-05-15T05:08:50;37.00;33.25;23.50
77320;PMS7003;66382;52.252;8.780;2023-05-15T05:11:16;36.25;33.25;23.50
77320;PMS7003;66382;52.252;8.780;2023-05-15T05:13:42;37.75;34.75;23.00
77320;PMS7003;66382;52.252;8.780;2023-05-15T05:16:07;36.50;33.50;23.00
77320;PMS7003;66382;52.252;8.780;2023-05-15T05:18:33;30.75;30.00;21.00
77320;PMS7003;66382;52.252;8.780;2023-05-15T05:20:59;34.75;32.50;23.50
77320;PMS7003;66382;52.252;8.780;2023-05-15T05:23:25;33.00;31.50;22.50
77320;PMS7003;66382;52.252;8.780;2023-05-15T05:25:52;35.50;31.25;22.25
77320;PMS7003;66382;52.252;8.780;2023-05-15T05:28:18;35.00;32.25;22.75
77320;PMS7003;66382;52.252;8.780;2023-05-15T05:30:43;34.50;32.50;23.00
77320;PMS7003;66382;52.252;8.780;2023-05-15T05:33:09;33.50;33.25;24.25
77320;PMS7003;66382;52.252;8.780;2023-05-15T05:35:35;33.75;32.00;23.00
77320;PMS7003;66382;52.252;8.780;2023-05-15T05:38:01;34.50;33.75;24.50
77320;PMS7003;66382;52.252;8.780;2023-05-15T05:40:26;32.50;31.25;23.50
77320;PMS7003;66382;52.252;8.780;2023-05-15T05:42:53;35.25;34.25;25.00
77320;PMS7003;66382;52.252;8.780;2023-05-15T05:45:19;36.50;33.00;23.25
77320;PMS7003;66382;52.252;8.780;2023-05-15T05:47:45;37.00;35.25;24.50
77320;PMS7003;66382;52.252;8.780;2023-05-15T05:50:10;35.25;34.25;24.75
77320;PMS7003;66382;52.252;8.780;2023-05-15T05:52:36;36.75;35.25;24.25
77320;PMS7003;66382;52.252;8.780;2023-05-15T05:55:02;31.75;31.50;23.50
77320;PMS7003;66382;52.252;8.780;2023-05-15T05:57:28;35.75;34.25;24.50
77320;PMS7003;66382;52.252;8.780;2023-05-15T05:59:55;33.00;32.50;24.75
77320;PMS7003;66382;52.252;8.780;2023-05-15T06:02:21;39.00;36.50;25.00
77320;PMS7003;66382;52.252;8.780;2023-05-15T06:04:46;35.50;34.25;23.75
77320;PMS7003;66382;52.252;8.780;2023-05-15T06:07:12;36.50;35.00;24.75
77320;PMS7003;66382;52.252;8.780;2023-05-15T06:09:38;32.50;31.75;22.00
77320;PMS7003;66382;52.252;8.780;2023-05-15T06:12:04;37.75;35.50;25.25
77320;PMS7003;66382;52.252;8.780;2023-05-15T06:14:30;36.00;34.25;25.25
77320;PMS7003;66382;52.252;8.780;2023-05-15T06:16:57;35.50;34.75;25.25
77320;PMS7003;66382;52.252;8.780;2023-05-15T06:19:23;37.25;36.00;25.25
77320;PMS7003;66382;52.252;8.780;2023-05-15T06:21:48;33.50;33.25;23.00
77320;PMS7003;66382;52.252;8.780;2023-05-15T06:24:14;33.25;33.00;25.00
77320;PMS7003;66382;52.252;8.780;2023-05-15T06:26:40;33.00;33.00;25.00
77320;PMS7003;66382;52.252;8.780;2023-05-15T06:29:07;40.00;37.00;25.25
77320;PMS7003;66382;52.252;8.780;2023-05-15T06:31:33;33.00;33.00;22.50
77320;PMS7003;66382;52.252;8.780;2023-05-15T06:34:00;36.75;35.50;25.50
77320;PMS7003;66382;52.252;8.780;2023-05-15T06:36:25;34.50;34.00;23.00
77320;PMS7003;66382;52.252;8.780;2023-05-15T06:38:51;37.50;36.00;25.75
77320;PMS7003;66382;52.252;8.780;2023-05-15T06:41:17;35.00;34.50;25.25
77320;PMS7003;66382;52.252;8.780;2023-05-15T06:43:42;32.50;32.50;23.00
77320;PMS7003;66382;52.252;8.780;2023-05-15T06:46:08;29.50;29.50;22.00
77320;PMS7003;66382;52.252;8.780;2023-05-15T06:48:34;32.25;32.25;23.00
77320;PMS7003;66382;52.252;8.780;2023-05-15T06:51:02;33.50;32.50;22.00
77320;PMS7003;66382;52.252;8.780;2023-05-15T06:53:28;34.75;32.75;23.25
77320;PMS7003;66382;52.252;8.780;2023-05-15T06:55:54;29.75;29.75;21.25
77320;PMS7003;66382;52.252;8.780;2023-05-15T06:58:19;34.00;33.25;23.50
77320;PMS7003;66382;52.252;8.780;2023-05-15T07:00:45;32.00;31.75;23.50
77320;PMS7003;66382;52.252;8.780;2023-05-15T07:03:11;35.75;33.75;23.25
77320;PMS7003;66382;52.252;8.780;2023-05-15T07:05:36;34.75;33.50;23.25
77320;PMS7003;66382;52.252;8.780;2023-05-15T07:08:04;37.00;34.25;21.75
77320;PMS7003;66382;52.252;8.780;2023-05-15T07:10:29;37.25;35.00;24.25
77320;PMS7003;66382;52.252;8.780;2023-05-15T07:12:55;34.75;33.50;23.50
77320;PMS7003;66382;52.252;8.780;2023-05-15T07:15:21;34.00;33.00;24.75
77320;PMS7003;66382;52.252;8.780;2023-05-15T07:17:47;32.25;31.00;23.25
77320;PMS7003;66382;52.252;8.780;2023-05-15T07:20:12;34.25;33.00;23.25
77320;PMS7003;66382;52.252;8.780;2023-05-15T07:22:38;34.75;33.50;23.50
77320;PMS7003;66382;52.252;8.780;2023-05-15T07:25:06;35.50;33.75;24.25
77320;PMS7003;66382;52.252;8.780;2023-05-15T07:27:32;32.25;31.75;23.50
77320;PMS7003;66382;52.252;8.780;2023-05-15T07:29:58;36.25;34.50;24.25
77320;PMS7003;66382;52.252;8.780;2023-05-15T07:32:24;34.75;33.00;23.25
77320;PMS7003;66382;52.252;8.780;2023-05-15T07:34:49;36.00;33.50;24.25
77320;PMS7003;66382;52.252;8.780;2023-05-15T07:37:16;33.25;32.25;24.25
77320;PMS7003;66382;52.252;8.780;2023-05-15T07:39:42;34.25;33.00;22.25
77320;PMS7003;66382;52.252;8.780;2023-05-15T07:42:09;35.00;33.75;23.75
77320;PMS7003;66382;52.252;8.780;2023-05-15T07:44:34;37.33;34.33;23.67
77320;PMS7003;66382;52.252;8.780;2023-05-15T07:47:00;34.33;33.00;23.33
77320;PMS7003;66382;52.252;8.780;2023-05-15T07:49:26;35.00;33.67;24.00
77320;PMS7003;66382;52.252;8.780;2023-05-15T07:51:51;38.00;34.33;23.67
77320;PMS7003;66382;52.252;8.780;2023-05-15T07:54:17;33.33;32.00;24.33
77320;PMS7003;66382;52.252;8.780;2023-05-15T07:56:43;34.67;33.67;22.67
77320;PMS7003;66382;52.252;8.780;2023-05-15T07:59:10;29.67;29.67;20.67
77320;PMS7003;66382;52.252;8.780;2023-05-15T08:01:35;25.00;25.00;19.75
77320;PMS7003;66382;52.252;8.780;2023-05-15T08:04:02;27.67;27.67;20.67
77320;PMS7003;66382;52.252;8.780;2023-05-15T08:06:30;27.25;27.25;21.00
77320;PMS7003;66382;52.252;8.780;2023-05-15T08:08:55;26.00;26.00;20.33
77320;PMS7003;66382;52.252;8.780;2023-05-15T08:11:21;29.67;29.33;20.67
77320;PMS7003;66382;52.252;8.780;2023-05-15T08:13:47;31.33;30.33;20.33
77320;PMS7003;66382;52.252;8.780;2023-05-15T08:16:14;30.67;30.33;22.00
77320;PMS7003;66382;52.252;8.780;2023-05-15T08:18:39;30.00;29.75;21.50
77320;PMS7003;66382;52.252;8.780;2023-05-15T08:21:05;28.33;28.00;21.00
77320;PMS7003;66382;52.252;8.780;2023-05-15T08:23:31;30.75;30.25;22.00
77320;PMS7003;66382;52.252;8.780;2023-05-15T08:25:57;30.33;30.00;20.33
77320;PMS7003;66382;52.252;8.780;2023-05-15T08:28:23;34.33;32.67;21.33
77320;PMS7003;66382;52.252;8.780;2023-05-15T08:30:48;32.67;31.33;22.33
77320;PMS7003;66382;52.252;8.780;2023-05-15T08:33:15;32.33;31.33;23.00
77320;PMS7003;66382;52.252;8.780;2023-05-15T08:35:41;37.50;34.50;23.50
77320;PMS7003;66382;52.252;8.780;2023-05-15T08:38:07;35.00;32.67;23.33
77320;PMS7003;66382;52.252;8.780;2023-05-15T08:40:32;34.50;32.75;23.75
77320;PMS7003;66382;52.252;8.780;2023-05-15T08:42:59;34.50;32.50;23.00
77320;PMS7003;66382;52.252;8.780;2023-05-15T08:45:28;34.00;32.40;23.40
77320;PMS7003;66382;52.252;8.780;2023-05-15T08:47:54;35.50;33.00;23.25
77320;PMS7003;66382;52.252;8.780;2023-05-15T08:50:23;30.20;30.00;22.20
77320;PMS7003;66382;52.252;8.780;2023-05-15T08:52:50;32.40;31.20;21.40
77320;PMS7003;66382;52.252;8.780;2023-05-15T08:55:17;29.60;28.40;21.40
77320;PMS7003;66382;52.252;8.780;2023-05-15T08:57:43;29.75;29.00;21.00
77320;PMS7003;66382;52.252;8.780;2023-05-15T09:00:09;29.00;28.75;20.25
77320;PMS7003;66382;52.252;8.780;2023-05-15T09:02:36;29.20;29.20;22.00
77320;PMS7003;66382;52.252;8.780;2023-05-15T09:05:02;30.40;30.20;22.00
77320;PMS7003;66382;52.252;8.780;2023-05-15T09:07:30;31.20;30.60;23.40
77320;PMS7003;66382;52.252;8.780;2023-05-15T09:09:56;35.80;33.40;23.00
77320;PMS7003;66382;52.252;8.780;2023-05-15T09:12:23;27.00;27.00;21.50
77320;PMS7003;66382;52.252;8.780;2023-05-15T09:14:50;31.60;30.60;23.00
77320;PMS7003;66382;52.252;8.780;2023-05-15T09:17:16;36.20;33.40;24.00
77320;PMS7003;66382;52.252;8.780;2023-05-15T09:19:41;36.00;33.25;23.25
77320;PMS7003;66382;52.252;8.780;2023-05-15T09:22:14;34.50;32.25;23.00
77320;PMS7003;66382;52.252;8.780;2023-05-15T09:24:42;34.60;32.60;22.20
77320;PMS7003;66382;52.252;8.780;2023-05-15T09:27:09;33.20;31.80;23.20
77320;PMS7003;66382;52.252;8.780;2023-05-15T09:29:35;32.75;31.50;21.75
77320;PMS7003;66382;52.252;8.780;2023-05-15T09:32:02;38.60;35.00;24.40
77320;PMS7003;66382;52.252;8.780;2023-05-15T09:34:30;36.40;33.60;23.40
77320;PMS7003;66382;52.252;8.780;2023-05-15T09:36:57;34.40;32.20;23.00
77320;PMS7003;66382;52.252;8.780;2023-05-15T09:39:23;39.25;35.00;23.00
77320;PMS7003;66382;52.252;8.780;2023-05-15T09:41:50;36.60;33.60;23.40
77320;PMS7003;66382;52.252;8.780;2023-05-15T09:44:17;33.60;32.20;22.60
77320;PMS7003;66382;52.252;8.780;2023-05-15T09:46:43;31.80;31.00;22.00
77320;PMS7003;66382;52.252;8.780;2023-05-15T09:49:09;34.00;32.00;22.50
77320;PMS7003;66382;52.252;8.780;2023-05-15T09:51:36;36.25;33.50;23.25
77320;PMS7003;66382;52.252;8.780;2023-05-15T09:54:03;33.20;31.80;22.40
77320;PMS7003;66382;52.252;8.780;2023-05-15T09:56:29;34.00;32.20;22.80
77320;PMS7003;66382;52.252;8.780;2023-05-15T09:58:58;31.60;30.80;22.00
77320;PMS7003;66382;52.252;8.780;2023-05-15T10:01:24;31.60;30.40;22.00
77320;PMS7003;66382;52.252;8.780;2023-05-15T10:03:56;36.40;33.40;24.20
77320;PMS7003;66382;52.252;8.780;2023-05-15T10:06:22;35.40;32.80;23.00
77320;PMS7003;66382;52.252;8.780;2023-05-15T10:08:51;33.25;31.75;22.25
77320;PMS7003;66382;52.252;8.780;2023-05-15T10:11:17;34.00;32.20;23.00
77320;PMS7003;66382;52.252;8.780;2023-05-15T10:13:44;34.40;32.40;23.00
77320;PMS7003;66382;52.252;8.780;2023-05-15T10:16:11;32.40;30.40;22.00
77320;PMS7003;66382;52.252;8.780;2023-05-15T10:18:38;36.80;33.00;22.40
77320;PMS7003;66382;52.252;8.780;2023-05-15T10:21:05;33.00;31.60;22.60
77320;PMS7003;66382;52.252;8.780;2023-05-15T10:23:32;35.80;33.20;22.60
77320;PMS7003;66382;52.252;8.780;2023-05-15T10:26:01;30.40;30.00;22.00
77320;PMS7003;66382;52.252;8.780;2023-05-15T10:28:31;25.60;25.60;20.00
77320;PMS7003;66382;52.252;8.780;2023-05-15T10:30:58;31.00;30.00;22.00
77320;PMS7003;66382;52.252;8.780;2023-05-15T10:33:26;25.00;25.00;19.00
77320;PMS7003;66382;52.252;8.780;2023-05-15T10:35:52;24.80;24.80;19.20
77320;PMS7003;66382;52.252;8.780;2023-05-15T10:38:19;23.60;23.60;18.80
77320;PMS7003;66382;52.252;8.780;2023-05-15T10:40:46;28.00;28.00;20.00
77320;PMS7003;66382;52.252;8.780;2023-05-15T10:43:12;23.40;23.40;17.80
77320;PMS7003;66382;52.252;8.780;2023-05-15T10:45:38;26.40;26.20;20.00
77320;PMS7003;66382;52.252;8.780;2023-05-15T10:48:04;23.20;23.20;18.40
77320;PMS7003;66382;52.252;8.780;2023-05-15T10:50:34;26.50;26.50;18.75
77320;PMS7003;66382;52.252;8.780;2023-05-15T10:53:00;22.25;22.25;18.25
77320;PMS7003;66382;52.252;8.780;2023-05-15T10:55:26;26.33;26.33;20.33
77320;PMS7003;66382;52.252;8.780;2023-05-15T10:57:52;19.33;19.33;16.00
77320;PMS7003;66382;52.252;8.780;2023-05-15T11:00:24;24.67;24.67;18.00
77320;PMS7003;66382;52.252;8.780;2023-05-15T11:02:51;22.00;22.00;18.75
77320;PMS7003;66382;52.252;8.780;2023-05-15T11:05:18;19.75;19.75;16.50
77320;PMS7003;66382;52.252;8.780;2023-05-15T11:07:46;23.75;23.75;18.75
77320;PMS7003;66382;52.252;8.780;2023-05-15T11:10:50;24.50;24.50;20.00
77320;PMS7003;66382;52.252;8.780;2023-05-15T11:13:16;23.67;23.67;18.67
77320;PMS7003;66382;52.252;8.780;2023-05-15T11:15:42;22.33;22.33;16.33
77320;PMS7003;66382;52.252;8.780;2023-05-15T11:18:09;27.50;27.00;19.75
77320;PMS7003;66382;52.252;8.780;2023-05-15T11:20:38;26.50;26.50;19.75
77320;PMS7003;66382;52.252;8.780;2023-05-15T11:23:07;25.50;25.50;19.50
77320;PMS7003;66382;52.252;8.780;2023-05-15T11:25:33;26.25;26.25;20.50
77320;PMS7003;66382;52.252;8.780;2023-05-15T11:28:00;26.50;26.50;20.25
77320;PMS7003;66382;52.252;8.780;2023-05-15T11:30:35;22.75;22.75;18.25
77320;PMS7003;66382;52.252;8.780;2023-05-15T11:33:03;24.25;23.50;19.25
77320;PMS7003;66382;52.252;8.780;2023-05-15T11:35:31;25.25;25.25;19.00
77320;PMS7003;66382;52.252;8.780;2023-05-15T11:37:59;25.25;25.25;18.50
77320;PMS7003;66382;52.252;8.780;2023-05-15T11:40:29;25.25;25.25;19.75
77320;PMS7003;66382;52.252;8.780;2023-05-15T11:43:00;29.75;29.75;20.50
77320;PMS7003;66382;52.252;8.780;2023-05-15T11:45:28;24.00;24.00;20.00
77320;PMS7003;66382;52.252;8.780;2023-05-15T11:47:56;27.00;26.25;19.75
77320;PMS7003;66382;52.252;8.780;2023-05-15T11:50:24;31.00;30.25;22.75
77320;PMS7003;66382;52.252;8.780;2023-05-15T11:52:51;30.00;30.00;20.00
77320;PMS7003;66382;52.252;8.780;2023-05-15T11:55:17;28.50;28.50;20.25
77320;PMS7003;66382;52.252;8.780;2023-05-15T11:57:45;30.50;30.00;22.00
77320;PMS7003;66382;52.252;8.780;2023-05-15T12:00:11;32.00;31.00;22.00
77320;PMS7003;66382;52.252;8.780;2023-05-15T12:02:38;28.25;28.25;20.00
77320;PMS7003;66382;52.252;8.780;2023-05-15T12:05:05;35.33;32.67;23.67
77320;PMS7003;66382;52.252;8.780;2023-05-15T12:07:32;36.00;33.25;23.25
77320;PMS7003;66382;52.252;8.780;2023-05-15T12:10:01;35.25;33.00;23.50
77320;PMS7003;66382;52.252;8.780;2023-05-15T12:12:27;31.67;30.67;21.00
77320;PMS7003;66382;52.252;8.780;2023-05-15T12:14:54;32.33;30.67;21.33
77320;PMS7003;66382;52.252;8.780;2023-05-15T12:17:22;33.00;32.00;22.25
77320;PMS7003;66382;52.252;8.780;2023-05-15T12:19:48;33.50;31.25;23.25
77320;PMS7003;66382;52.252;8.780;2023-05-15T12:22:15;39.00;34.00;22.75
77320;PMS7003;66382;52.252;8.780;2023-05-15T12:24:41;38.33;34.33;23.33
77320;PMS7003;66382;52.252;8.780;2023-05-15T12:27:07;36.67;33.67;22.33
77320;PMS7003;66382;52.252;8.780;2023-05-15T12:29:33;32.75;31.50;22.50
77320;PMS7003;66382;52.252;8.780;2023-05-15T12:32:01;35.67;33.33;23.00
77320;PMS7003;66382;52.252;8.780;2023-05-15T12:34:27;35.50;33.25;22.50
77320;PMS7003;66382;52.252;8.780;2023-05-15T12:36:52;36.00;33.67;23.33
77320;PMS7003;66382;52.252;8.780;2023-05-15T12:39:18;29.00;29.00;21.33
77320;PMS7003;66382;52.252;8.780;2023-05-15T12:41:44;34.33;32.67;22.67
77320;PMS7003;66382;52.252;8.780;2023-05-15T12:44:14;35.33;33.33;23.33
77320;PMS7003;66382;52.252;8.780;2023-05-15T12:46:40;29.75;29.50;20.25
77320;PMS7003;66382;52.252;8.780;2023-05-15T12:49:08;30.33;30.33;20.67
77320;PMS7003;66382;52.252;8.780;2023-05-15T12:51:34;25.25;25.25;19.00
77320;PMS7003;66382;52.252;8.780;2023-05-15T12:54:14;26.50;26.50;20.00
77320;PMS7003;66382;52.252;8.780;2023-05-15T12:56:41;23.25;23.25;18.00
77320;PMS7003;66382;52.252;8.780;2023-05-15T12:59:07;23.00;23.00;17.67
77320;PMS7003;66382;52.252;8.780;2023-05-15T13:01:32;21.67;21.67;17.00
77320;PMS7003;66382;52.252;8.780;2023-05-15T13:03:58;23.33;23.33;18.00
77320;PMS7003;66382;52.252;8.780;2023-05-15T13:06:25;24.67;24.67;19.00
77320;PMS7003;66382;52.252;8.780;2023-05-15T13:08:51;26.00;26.00;18.75
77320;PMS7003;66382;52.252;8.780;2023-05-15T13:11:18;16.50;16.50;14.50
77320;PMS7003;66382;52.252;8.780;2023-05-15T13:13:45;21.33;21.33;18.00
77320;PMS7003;66382;52.252;8.780;2023-05-15T13:16:18;23.50;23.50;16.50
77320;PMS7003;66382;52.252;8.780;2023-05-15T13:18:45;22.75;22.75;18.25
77320;PMS7003;66382;52.252;8.780;2023-05-15T13:21:13;27.25;27.25;18.00
77320;PMS7003;66382;52.252;8.780;2023-05-15T13:23:40;21.33;21.33;16.33
77320;PMS7003;66382;52.252;8.780;2023-05-15T13:26:06;19.00;19.00;13.75
77320;PMS7003;66382;52.252;8.780;2023-05-15T13:28:32;21.67;21.67;15.33
77320;PMS7003;66382;52.252;8.780;2023-05-15T13:30:58;23.50;23.50;17.25
77320;PMS7003;66382;52.252;8.780;2023-05-15T13:33:24;22.33;22.33;17.33
77320;PMS7003;66382;52.252;8.780;2023-05-15T13:35:49;17.67;17.67;13.00
77320;PMS7003;66382;52.252;8.780;2023-05-15T13:38:15;22.67;22.67;19.33
77320;PMS7003;66382;52.252;8.780;2023-05-15T13:40:42;19.67;19.67;15.33
77320;PMS7003;66382;52.252;8.780;2023-05-15T13:43:08;21.25;21.25;16.25
77320;PMS7003;66382;52.252;8.780;2023-05-15T13:45:34;24.00;24.00;17.00
77320;PMS7003;66382;52.252;8.780;2023-05-15T13:48:00;22.00;22.00;17.00